sensor_id;sensor_type;location;lat;lon;timestamp;P1;durP1;ratioP1;P2;durP2;ratioP2
13415;SDS011;6779;50.150;8.680;2023-11-19T00:00:15;18.33;;;13.13;;
13415;SDS011;6779;50.150;8.680;2023-11-19T00:02:41;21.90;;;13.37;;
13415;SDS011;6779;50.150;8.680;2023-11-19T00:05:07;18.30;;;13.53;;
13415;SDS011;6779;50.150;8.680;2023-11-19T00:07:34;17.07;;;12.67;;
13415;SDS011;6779;50.150;8.680;2023-11-19T00:10:06;16.27;;;12.97;;
13415;SDS011;6779;50.150;8.680;2023-11-19T00:12:39;17.77;;;13.17;;
13415;SDS011;6779;50.150;8.680;2023-11-19T00:15:06;16.80;;;12.67;;
13415;SDS011;6779;50.150;8.680;2023-11-19T00:17:36;18.80;;;14.60;;
13415;SDS011;6779;50.150;8.680;2023-11-19T00:20:01;22.17;;;14.13;;
13415;SDS011;6779;50.150;8.680;2023-11-19T00:22:30;21.77;;;14.03;;
13415;SDS011;6779;50.150;8.680;2023-11-19T00:24:56;19.47;;;14.07;;
13415;SDS011;6779;50.150;8.680;2023-11-19T00:27:21;22.43;;;14.07;;
13415;SDS011;6779;50.150;8.680;2023-11-19T00:29:47;18.80;;;13.90;;
13415;SDS011;6779;50.150;8.680;2023-11-19T00:32:12;20.13;;;14.73;;
13415;SDS011;6779;50.150;8.680;2023-11-19T00:34:37;20.47;;;14.60;;
13415;SDS011;6779;50.150;8.680;2023-11-19T00:37:03;19.83;;;14.30;;
13415;SDS011;6779;50.150;8.680;2023-11-19T00:39:29;21.33;;;13.97;;
13415;SDS011;6779;50.150;8.680;2023-11-19T00:41:54;23.37;;;15.10;;
13415;SDS011;6779;50.150;8.680;2023-11-19T00:44:19;20.37;;;15.70;;
13415;SDS011;6779;50.150;8.680;2023-11-19T00:46:44;21.60;;;15.30;;
13415;SDS011;6779;50.150;8.680;2023-11-19T00:49:10;20.63;;;15.97;;
13415;SDS011;6779;50.150;8.680;2023-11-19T00:51:36;20.87;;;15.17;;
13415;SDS011;6779;50.150;8.680;2023-11-19T00:54:02;25.27;;;15.50;;
13415;SDS011;6779;50.150;8.680;2023-11-19T00:56:28;21.90;;;15.97;;
13415;SDS011;6779;50.150;8.680;2023-11-19T00:58:53;23.40;;;15.97;;
13415;SDS011;6779;50.150;8.680;2023-11-19T01:01:19;24.33;;;17.43;;
13415;SDS011;6779;50.150;8.680;2023-11-19T01:03:44;22.53;;;15.63;;
13415;SDS011;6779;50.150;8.680;2023-11-19T01:06:09;21.67;;;14.20;;
13415;SDS011;6779;50.150;8.680;2023-11-19T01:08:35;18.57;;;14.70;;
13415;SDS011;6779;50.150;8.680;2023-11-19T01:11:01;22.33;;;15.00;;
13415;SDS011;6779;50.150;8.680;2023-11-19T01:13:27;20.13;;;14.77;;
13415;SDS011;6779;50.150;8.680;2023-11-19T01:15:52;22.60;;;14.63;;
13415;SDS011;6779;50.150;8.680;2023-11-19T01:18:17;22.40;;;15.40;;
13415;SDS011;6779;50.150;8.680;2023-11-19T01:20:43;19.37;;;13.57;;
13415;SDS011;6779;50.150;8.680;2023-11-19T01:23:08;17.90;;;13.20;;
13415;SDS011;6779;50.150;8.680;2023-11-19T01:25:33;23.10;;;14.97;;
13415;SDS011;6779;50.150;8.680;2023-11-19T01:28:00;19.53;;;13.23;;
13415;SDS011;6779;50.150;8.680;2023-11-19T01:30:27;20.17;;;13.93;;
13415;SDS011;6779;50.150;8.680;2023-11-19T01:32:52;24.40;;;14.00;;
13415;SDS011;6779;50.150;8.680;2023-11-19T01:35:18;19.20;;;14.07;;
13415;SDS011;6779;50.150;8.680;2023-11-19T01:37:44;19.10;;;14.73;;
13415;SDS011;6779;50.150;8.680;2023-11-19T01:40:09;17.43;;;12.50;;
13415;SDS011;6779;50.150;8.680;2023-11-19T01:42:40;17.37;;;13.13;;
13415;SDS011;6779;50.150;8.680;2023-11-19T01:45:06;17.93;;;13.03;;
13415;SDS011;6779;50.150;8.680;2023-11-19T01:47:34;19.27;;;13.70;;
13415;SDS011;6779;50.150;8.680;2023-11-19T01:50:00;19.57;;;13.70;;
13415;SDS011;6779;50.150;8.680;2023-11-19T01:52:26;16.60;;;12.07;;
13415;SDS011;6779;50.150;8.680;2023-11-19T01:54:52;19.33;;;12.60;;
13415;SDS011;6779;50.150;8.680;2023-11-19T01:57:18;17.07;;;12.50;;
13415;SDS011;6779;50.150;8.680;2023-11-19T01:59:45;16.93;;;13.30;;
13415;SDS011;6779;50.150;8.680;2023-11-19T02:02:10;16.30;;;12.53;;
13415;SDS011;6779;50.150;8.680;2023-11-19T02:04:37;17.87;;;12.67;;
13415;SDS011;6779;50.150;8.680;2023-11-19T02:07:03;14.47;;;12.07;;
13415;SDS011;6779;50.150;8.680;2023-11-19T02:09:28;15.90;;;11.93;;
13415;SDS011;6779;50.150;8.680;2023-11-19T02:11:55;16.40;;;12.90;;
13415;SDS011;6779;50.150;8.680;2023-11-19T02:14:22;15.93;;;12.50;;
13415;SDS011;6779;50.150;8.680;2023-11-19T02:16:50;18.70;;;12.93;;
13415;SDS011;6779;50.150;8.680;2023-11-19T02:19:18;14.17;;;11.73;;
13415;SDS011;6779;50.150;8.680;2023-11-19T02:21:44;14.93;;;11.90;;
13415;SDS011;6779;50.150;8.680;2023-11-19T02:24:10;14.93;;;12.20;;
13415;SDS011;6779;50.150;8.680;2023-11-19T02:26:39;17.03;;;12.90;;
13415;SDS011;6779;50.150;8.680;2023-11-19T02:29:07;18.03;;;12.57;;
13415;SDS011;6779;50.150;8.680;2023-11-19T02:31:33;15.77;;;11.37;;
13415;SDS011;6779;50.150;8.680;2023-11-19T02:34:00;14.63;;;11.37;;
13415;SDS011;6779;50.150;8.680;2023-11-19T02:36:27;16.77;;;11.87;;
13415;SDS011;6779;50.150;8.680;2023-11-19T02:38:52;14.13;;;11.20;;
13415;SDS011;6779;50.150;8.680;2023-11-19T02:41:17;13.77;;;11.53;;
13415;SDS011;6779;50.150;8.680;2023-11-19T02:43:43;14.03;;;10.57;;
13415;SDS011;6779;50.150;8.680;2023-11-19T02:46:08;15.13;;;11.43;;
13415;SDS011;6779;50.150;8.680;2023-11-19T02:48:34;13.27;;;11.30;;
13415;SDS011;6779;50.150;8.680;2023-11-19T02:51:03;14.07;;;11.27;;
13415;SDS011;6779;50.150;8.680;2023-11-19T02:53:29;14.73;;;11.67;;
13415;SDS011;6779;50.150;8.680;2023-11-19T02:55:55;14.50;;;10.60;;
13415;SDS011;6779;50.150;8.680;2023-11-19T02:58:26;13.93;;;10.47;;
13415;SDS011;6779;50.150;8.680;2023-11-19T03:00:53;14.53;;;11.03;;
13415;SDS011;6779;50.150;8.680;2023-11-19T03:03:23;12.30;;;9.67;;
13415;SDS011;6779;50.150;8.680;2023-11-19T03:05:53;13.47;;;10.70;;
13415;SDS011;6779;50.150;8.680;2023-11-19T03:08:19;12.57;;;9.73;;
13415;SDS011;6779;50.150;8.680;2023-11-19T03:10:44;13.00;;;9.90;;
13415;SDS011;6779;50.150;8.680;2023-11-19T03:13:11;12.57;;;10.07;;
13415;SDS011;6779;50.150;8.680;2023-11-19T03:15:38;11.20;;;9.27;;
13415;SDS011;6779;50.150;8.680;2023-11-19T03:18:03;12.70;;;9.17;;
13415;SDS011;6779;50.150;8.680;2023-11-19T03:20:28;10.30;;;8.67;;
13415;SDS011;6779;50.150;8.680;2023-11-19T03:22:55;11.10;;;8.97;;
13415;SDS011;6779;50.150;8.680;2023-11-19T03:25:20;11.13;;;8.40;;
13415;SDS011;6779;50.150;8.680;2023-11-19T03:27:45;10.17;;;8.33;;
13415;SDS011;6779;50.150;8.680;2023-11-19T03:30:11;12.90;;;8.80;;
13415;SDS011;6779;50.150;8.680;2023-11-19T03:32:36;12.17;;;8.87;;
13415;SDS011;6779;50.150;8.680;2023-11-19T03:35:03;11.63;;;9.20;;
13415;SDS011;6779;50.150;8.680;2023-11-19T03:37:29;12.20;;;9.47;;
13415;SDS011;6779;50.150;8.680;2023-11-19T03:39:56;11.63;;;9.50;;
13415;SDS011;6779;50.150;8.680;2023-11-19T03:42:24;12.70;;;8.70;;
13415;SDS011;6779;50.150;8.680;2023-11-19T03:44:50;10.70;;;9.23;;
13415;SDS011;6779;50.150;8.680;2023-11-19T03:47:17;11.50;;;9.00;;
13415;SDS011;6779;50.150;8.680;2023-11-19T03:49:46;12.83;;;9.07;;
13415;SDS011;6779;50.150;8.680;2023-11-19T03:52:13;10.37;;;8.80;;
13415;SDS011;6779;50.150;8.680;2023-11-19T03:54:38;13.47;;;10.13;;
13415;SDS011;6779;50.150;8.680;2023-11-19T03:57:04;11.00;;;9.07;;
13415;SDS011;6779;50.150;8.680;2023-11-19T03:59:30;12.53;;;9.63;;
13415;SDS011;6779;50.150;8.680;2023-11-19T04:01:55;12.10;;;9.33;;
13415;SDS011;6779;50.150;8.680;2023-11-19T04:04:21;12.10;;;9.83;;
13415;SDS011;6779;50.150;8.680;2023-11-19T04:06:46;13.60;;;10.00;;
13415;SDS011;6779;50.150;8.680;2023-11-19T04:09:12;11.47;;;10.27;;
13415;SDS011;6779;50.150;8.680;2023-11-19T04:11:37;12.90;;;10.53;;
13415;SDS011;6779;50.150;8.680;2023-11-19T04:14:03;13.60;;;9.90;;
13415;SDS011;6779;50.150;8.680;2023-11-19T04:16:28;14.80;;;10.50;;
13415;SDS011;6779;50.150;8.680;2023-11-19T04:18:56;15.40;;;9.73;;
13415;SDS011;6779;50.150;8.680;2023-11-19T04:21:21;11.23;;;9.20;;
13415;SDS011;6779;50.150;8.680;2023-11-19T04:23:48;13.93;;;9.37;;
13415;SDS011;6779;50.150;8.680;2023-11-19T04:26:13;11.23;;;8.53;;
13415;SDS011;6779;50.150;8.680;2023-11-19T04:28:38;11.40;;;8.70;;
13415;SDS011;6779;50.150;8.680;2023-11-19T04:31:04;11.30;;;8.70;;
13415;SDS011;6779;50.150;8.680;2023-11-19T04:33:30;10.90;;;8.60;;
13415;SDS011;6779;50.150;8.680;2023-11-19T04:35:56;11.20;;;9.13;;
13415;SDS011;6779;50.150;8.680;2023-11-19T04:38:21;12.10;;;8.70;;
13415;SDS011;6779;50.150;8.680;2023-11-19T04:40:46;10.30;;;8.27;;
13415;SDS011;6779;50.150;8.680;2023-11-19T04:43:12;10.27;;;7.90;;
13415;SDS011;6779;50.150;8.680;2023-11-19T04:45:41;11.23;;;8.13;;
13415;SDS011;6779;50.150;8.680;2023-11-19T04:48:06;9.63;;;7.60;;
13415;SDS011;6779;50.150;8.680;2023-11-19T04:50:31;11.40;;;8.40;;
13415;SDS011;6779;50.150;8.680;2023-11-19T04:52:57;8.83;;;7.20;;
13415;SDS011;6779;50.150;8.680;2023-11-19T04:55:22;9.43;;;7.00;;
13415;SDS011;6779;50.150;8.680;2023-11-19T04:57:47;10.87;;;8.37;;
13415;SDS011;6779;50.150;8.680;2023-11-19T05:00:13;9.07;;;7.27;;
13415;SDS011;6779;50.150;8.680;2023-11-19T05:02:38;9.63;;;8.10;;
13415;SDS011;6779;50.150;8.680;2023-11-19T05:05:04;10.43;;;7.63;;
13415;SDS011;6779;50.150;8.680;2023-11-19T05:07:30;10.33;;;8.43;;
13415;SDS011;6779;50.150;8.680;2023-11-19T05:09:55;11.03;;;8.20;;
13415;SDS011;6779;50.150;8.680;2023-11-19T05:12:20;10.87;;;8.77;;
13415;SDS011;6779;50.150;8.680;2023-11-19T05:14:46;10.60;;;8.87;;
13415;SDS011;6779;50.150;8.680;2023-11-19T05:17:15;11.80;;;9.30;;
13415;SDS011;6779;50.150;8.680;2023-11-19T05:19:40;11.93;;;9.57;;
13415;SDS011;6779;50.150;8.680;2023-11-19T05:22:06;11.37;;;9.23;;
13415;SDS011;6779;50.150;8.680;2023-11-19T05:24:31;9.73;;;8.73;;
13415;SDS011;6779;50.150;8.680;2023-11-19T05:26:56;11.47;;;8.67;;
13415;SDS011;6779;50.150;8.680;2023-11-19T05:29:23;10.83;;;9.33;;
13415;SDS011;6779;50.150;8.680;2023-11-19T05:31:48;11.67;;;9.30;;
13415;SDS011;6779;50.150;8.680;2023-11-19T05:34:14;10.70;;;9.60;;
13415;SDS011;6779;50.150;8.680;2023-11-19T05:36:40;11.40;;;9.33;;
13415;SDS011;6779;50.150;8.680;2023-11-19T05:39:05;9.57;;;8.57;;
13415;SDS011;6779;50.150;8.680;2023-11-19T05:41:30;10.43;;;9.27;;
13415;SDS011;6779;50.150;8.680;2023-11-19T05:43:56;11.73;;;9.50;;
13415;SDS011;6779;50.150;8.680;2023-11-19T05:46:21;13.10;;;8.83;;
13415;SDS011;6779;50.150;8.680;2023-11-19T05:48:46;11.30;;;9.50;;
13415;SDS011;6779;50.150;8.680;2023-11-19T05:51:12;10.97;;;8.83;;
13415;SDS011;6779;50.150;8.680;2023-11-19T05:53:38;11.47;;;9.33;;
13415;SDS011;6779;50.150;8.680;2023-11-19T05:56:04;13.37;;;10.03;;
13415;SDS011;6779;50.150;8.680;2023-11-19T05:58:29;12.47;;;10.13;;
13415;SDS011;6779;50.150;8.680;2023-11-19T06:00:55;15.60;;;10.37;;
13415;SDS011;6779;50.150;8.680;2023-11-19T06:03:21;11.17;;;9.70;;
13415;SDS011;6779;50.150;8.680;2023-11-19T06:05:47;14.40;;;10.80;;
13415;SDS011;6779;50.150;8.680;2023-11-19T06:08:13;11.20;;;10.00;;
13415;SDS011;6779;50.150;8.680;2023-11-19T06:10:40;13.03;;;10.60;;
13415;SDS011;6779;50.150;8.680;2023-11-19T06:13:05;11.60;;;10.20;;
13415;SDS011;6779;50.150;8.680;2023-11-19T06:15:31;12.93;;;10.33;;
13415;SDS011;6779;50.150;8.680;2023-11-19T06:17:58;15.27;;;11.13;;
13415;SDS011;6779;50.150;8.680;2023-11-19T06:20:25;12.80;;;10.50;;
13415;SDS011;6779;50.150;8.680;2023-11-19T06:22:53;14.00;;;9.93;;
13415;SDS011;6779;50.150;8.680;2023-11-19T06:25:18;12.80;;;9.87;;
13415;SDS011;6779;50.150;8.680;2023-11-19T06:27:43;12.60;;;10.03;;
13415;SDS011;6779;50.150;8.680;2023-11-19T06:30:09;10.57;;;9.17;;
13415;SDS011;6779;50.150;8.680;2023-11-19T06:32:35;11.67;;;9.20;;
13415;SDS011;6779;50.150;8.680;2023-11-19T06:35:00;12.40;;;9.03;;
13415;SDS011;6779;50.150;8.680;2023-11-19T06:37:25;12.60;;;9.30;;
13415;SDS011;6779;50.150;8.680;2023-11-19T06:39:52;12.03;;;8.53;;
13415;SDS011;6779;50.150;8.680;2023-11-19T06:42:17;9.50;;;7.93;;
13415;SDS011;6779;50.150;8.680;2023-11-19T06:44:42;10.60;;;8.03;;
13415;SDS011;6779;50.150;8.680;2023-11-19T06:47:08;10.37;;;7.83;;
13415;SDS011;6779;50.150;8.680;2023-11-19T06:49:33;8.97;;;7.80;;
13415;SDS011;6779;50.150;8.680;2023-11-19T06:51:58;10.80;;;7.87;;
13415;SDS011;6779;50.150;8.680;2023-11-19T06:54:24;10.30;;;7.63;;
13415;SDS011;6779;50.150;8.680;2023-11-19T06:56:49;11.30;;;7.67;;
13415;SDS011;6779;50.150;8.680;2023-11-19T06:59:14;12.33;;;7.83;;
13415;SDS011;6779;50.150;8.680;2023-11-19T07:01:39;9.90;;;7.20;;
13415;SDS011;6779;50.150;8.680;2023-11-19T07:04:08;11.03;;;7.80;;
13415;SDS011;6779;50.150;8.680;2023-11-19T07:06:35;11.33;;;8.30;;
13415;SDS011;6779;50.150;8.680;2023-11-19T07:09:02;11.63;;;8.13;;
13415;SDS011;6779;50.150;8.680;2023-11-19T07:11:43;10.77;;;7.53;;
13415;SDS011;6779;50.150;8.680;2023-11-19T07:14:09;10.97;;;8.63;;
13415;SDS011;6779;50.150;8.680;2023-11-19T07:16:34;11.50;;;8.60;;
13415;SDS011;6779;50.150;8.680;2023-11-19T07:19:02;12.27;;;8.60;;
13415;SDS011;6779;50.150;8.680;2023-11-19T07:21:28;11.50;;;8.50;;
13415;SDS011;6779;50.150;8.680;2023-11-19T07:23:54;10.83;;;8.60;;
13415;SDS011;6779;50.150;8.680;2023-11-19T07:26:22;11.67;;;8.63;;
13415;SDS011;6779;50.150;8.680;2023-11-19T07:28:48;10.97;;;8.50;;
13415;SDS011;6779;50.150;8.680;2023-11-19T07:31:14;13.43;;;9.37;;
13415;SDS011;6779;50.150;8.680;2023-11-19T07:33:39;11.60;;;8.90;;
13415;SDS011;6779;50.150;8.680;2023-11-19T07:36:07;9.77;;;7.70;;
13415;SDS011;6779;50.150;8.680;2023-11-19T07:38:33;11.13;;;9.03;;
13415;SDS011;6779;50.150;8.680;2023-11-19T07:40:58;11.13;;;9.50;;
13415;SDS011;6779;50.150;8.680;2023-11-19T07:43:24;11.77;;;8.63;;
13415;SDS011;6779;50.150;8.680;2023-11-19T07:45:49;11.03;;;8.27;;
13415;SDS011;6779;50.150;8.680;2023-11-19T07:48:14;11.83;;;9.43;;
13415;SDS011;6779;50.150;8.680;2023-11-19T07:50:40;11.60;;;9.03;;
13415;SDS011;6779;50.150;8.680;2023-11-19T07:53:06;11.97;;;9.47;;
13415;SDS011;6779;50.150;8.680;2023-11-19T07:55:32;13.30;;;10.57;;
13415;SDS011;6779;50.150;8.680;2023-11-19T07:57:57;15.57;;;10.87;;
13415;SDS011;6779;50.150;8.680;2023-11-19T08:00:23;13.77;;;10.43;;
13415;SDS011;6779;50.150;8.680;2023-11-19T08:02:48;13.57;;;10.63;;
13415;SDS011;6779;50.150;8.680;2023-11-19T08:05:13;13.33;;;10.40;;
13415;SDS011;6779;50.150;8.680;2023-11-19T08:07:39;13.27;;;10.03;;
13415;SDS011;6779;50.150;8.680;2023-11-19T08:10:04;12.67;;;10.37;;
13415;SDS011;6779;50.150;8.680;2023-11-19T08:12:30;13.53;;;10.27;;
13415;SDS011;6779;50.150;8.680;2023-11-19T08:14:56;12.50;;;9.70;;
13415;SDS011;6779;50.150;8.680;2023-11-19T08:17:23;18.30;;;12.40;;
13415;SDS011;6779;50.150;8.680;2023-11-19T08:19:48;13.80;;;10.47;;
13415;SDS011;6779;50.150;8.680;2023-11-19T08:22:14;12.87;;;9.87;;
13415;SDS011;6779;50.150;8.680;2023-11-19T08:24:39;10.73;;;8.60;;
13415;SDS011;6779;50.150;8.680;2023-11-19T08:27:04;13.43;;;10.13;;
13415;SDS011;6779;50.150;8.680;2023-11-19T08:29:30;12.83;;;9.90;;
13415;SDS011;6779;50.150;8.680;2023-11-19T08:31:55;14.23;;;9.63;;
13415;SDS011;6779;50.150;8.680;2023-11-19T08:34:20;14.67;;;10.00;;
13415;SDS011;6779;50.150;8.680;2023-11-19T08:36:45;11.83;;;9.50;;
13415;SDS011;6779;50.150;8.680;2023-11-19T08:39:11;10.40;;;8.87;;
13415;SDS011;6779;50.150;8.680;2023-11-19T08:41:36;11.80;;;8.63;;
13415;SDS011;6779;50.150;8.680;2023-11-19T08:44:03;10.87;;;8.97;;
13415;SDS011;6779;50.150;8.680;2023-11-19T08:46:28;12.57;;;9.63;;
13415;SDS011;6779;50.150;8.680;2023-11-19T08:48:54;11.23;;;9.37;;
13415;SDS011;6779;50.150;8.680;2023-11-19T08:51:22;10.60;;;9.03;;
13415;SDS011;6779;50.150;8.680;2023-11-19T08:53:48;12.73;;;9.23;;
13415;SDS011;6779;50.150;8.680;2023-11-19T08:56:13;12.27;;;9.03;;
13415;SDS011;6779;50.150;8.680;2023-11-19T08:58:39;10.57;;;8.90;;
13415;SDS011;6779;50.150;8.680;2023-11-19T09:01:04;11.13;;;9.07;;
13415;SDS011;6779;50.150;8.680;2023-11-19T09:03:31;10.07;;;7.70;;
13415;SDS011;6779;50.150;8.680;2023-11-19T09:05:56;9.93;;;7.50;;
13415;SDS011;6779;50.150;8.680;2023-11-19T09:08:22;11.60;;;7.60;;
13415;SDS011;6779;50.150;8.680;2023-11-19T09:10:47;8.00;;;7.20;;
13415;SDS011;6779;50.150;8.680;2023-11-19T09:13:12;8.23;;;6.63;;
13415;SDS011;6779;50.150;8.680;2023-11-19T09:15:38;9.37;;;7.33;;
13415;SDS011;6779;50.150;8.680;2023-11-19T09:18:03;8.43;;;6.73;;
13415;SDS011;6779;50.150;8.680;2023-11-19T09:20:29;9.63;;;7.33;;
13415;SDS011;6779;50.150;8.680;2023-11-19T09:23:02;9.63;;;7.50;;
13415;SDS011;6779;50.150;8.680;2023-11-19T09:25:27;10.47;;;7.77;;
13415;SDS011;6779;50.150;8.680;2023-11-19T09:27:53;9.30;;;6.10;;
13415;SDS011;6779;50.150;8.680;2023-11-19T09:30:18;6.63;;;5.37;;
13415;SDS011;6779;50.150;8.680;2023-11-19T09:32:43;6.50;;;5.43;;
13415;SDS011;6779;50.150;8.680;2023-11-19T09:35:09;5.63;;;4.83;;
13415;SDS011;6779;50.150;8.680;2023-11-19T09:37:38;6.63;;;4.90;;
13415;SDS011;6779;50.150;8.680;2023-11-19T09:40:03;5.30;;;4.70;;
13415;SDS011;6779;50.150;8.680;2023-11-19T09:42:30;4.83;;;3.97;;
13415;SDS011;6779;50.150;8.680;2023-11-19T09:44:57;6.00;;;3.90;;
13415;SDS011;6779;50.150;8.680;2023-11-19T09:47:24;5.90;;;3.63;;
13415;SDS011;6779;50.150;8.680;2023-11-19T09:49:50;6.50;;;3.67;;
13415;SDS011;6779;50.150;8.680;2023-11-19T09:52:15;5.57;;;3.70;;
13415;SDS011;6779;50.150;8.680;2023-11-19T09:54:41;5.63;;;3.73;;
13415;SDS011;6779;50.150;8.680;2023-11-19T09:57:06;5.37;;;3.73;;
13415;SDS011;6779;50.150;8.680;2023-11-19T09:59:33;4.30;;;3.47;;
13415;SDS011;6779;50.150;8.680;2023-11-19T10:01:58;6.23;;;3.73;;
13415;SDS011;6779;50.150;8.680;2023-11-19T10:04:24;5.97;;;2.87;;
13415;SDS011;6779;50.150;8.680;2023-11-19T10:06:50;6.23;;;2.47;;
13415;SDS011;6779;50.150;8.680;2023-11-19T10:09:16;2.70;;;2.20;;
13415;SDS011;6779;50.150;8.680;2023-11-19T10:11:42;5.77;;;2.80;;
13415;SDS011;6779;50.150;8.680;2023-11-19T10:14:07;6.90;;;2.23;;
13415;SDS011;6779;50.150;8.680;2023-11-19T10:16:34;7.23;;;3.13;;
13415;SDS011;6779;50.150;8.680;2023-11-19T10:18:59;4.17;;;2.40;;
13415;SDS011;6779;50.150;8.680;2023-11-19T10:21:25;6.43;;;2.60;;
13415;SDS011;6779;50.150;8.680;2023-11-19T10:23:51;5.43;;;2.63;;
13415;SDS011;6779;50.150;8.680;2023-11-19T10:26:24;6.90;;;2.20;;
13415;SDS011;6779;50.150;8.680;2023-11-19T10:28:50;5.27;;;1.93;;
13415;SDS011;6779;50.150;8.680;2023-11-19T10:31:16;3.83;;;2.20;;
13415;SDS011;6779;50.150;8.680;2023-11-19T10:33:42;5.37;;;2.17;;
13415;SDS011;6779;50.150;8.680;2023-11-19T10:36:09;9.37;;;2.90;;
13415;SDS011;6779;50.150;8.680;2023-11-19T10:38:36;8.73;;;2.53;;
13415;SDS011;6779;50.150;8.680;2023-11-19T10:41:02;5.10;;;2.70;;
13415;SDS011;6779;50.150;8.680;2023-11-19T10:43:27;8.33;;;2.50;;
13415;SDS011;6779;50.150;8.680;2023-11-19T10:45:53;8.03;;;2.40;;
13415;SDS011;6779;50.150;8.680;2023-11-19T10:48:18;7.83;;;2.17;;
13415;SDS011;6779;50.150;8.680;2023-11-19T10:50:45;5.50;;;2.47;;
13415;SDS011;6779;50.150;8.680;2023-11-19T10:53:11;6.23;;;2.57;;
13415;SDS011;6779;50.150;8.680;2023-11-19T10:55:43;5.43;;;2.17;;
13415;SDS011;6779;50.150;8.680;2023-11-19T10:58:12;5.40;;;1.93;;
13415;SDS011;6779;50.150;8.680;2023-11-19T11:00:45;6.43;;;2.43;;
13415;SDS011;6779;50.150;8.680;2023-11-19T11:03:16;5.90;;;2.10;;
13415;SDS011;6779;50.150;8.680;2023-11-19T11:05:42;7.13;;;2.03;;
13415;SDS011;6779;50.150;8.680;2023-11-19T11:08:08;5.80;;;1.60;;
13415;SDS011;6779;50.150;8.680;2023-11-19T11:10:35;6.80;;;2.10;;
13415;SDS011;6779;50.150;8.680;2023-11-19T11:13:05;5.53;;;1.30;;
13415;SDS011;6779;50.150;8.680;2023-11-19T11:15:30;3.80;;;1.87;;
13415;SDS011;6779;50.150;8.680;2023-11-19T11:17:57;6.47;;;1.87;;
13415;SDS011;6779;50.150;8.680;2023-11-19T11:20:29;7.03;;;2.43;;
13415;SDS011;6779;50.150;8.680;2023-11-19T11:28:35;5.37;;;2.03;;
13415;SDS011;6779;50.150;8.680;2023-11-19T11:38:48;7.33;;;2.20;;
13415;SDS011;6779;50.150;8.680;2023-11-19T11:43:47;7.60;;;2.37;;
13415;SDS011;6779;50.150;8.680;2023-11-19T11:49:07;10.07;;;2.83;;
13415;SDS011;6779;50.150;8.680;2023-11-19T11:54:10;10.10;;;2.60;;
13415;SDS011;6779;50.150;8.680;2023-11-19T11:56:38;10.17;;;3.33;;
13415;SDS011;6779;50.150;8.680;2023-11-19T11:59:07;13.97;;;3.47;;
13415;SDS011;6779;50.150;8.680;2023-11-19T12:01:33;8.97;;;2.60;;
13415;SDS011;6779;50.150;8.680;2023-11-19T12:03:58;12.23;;;2.83;;
13415;SDS011;6779;50.150;8.680;2023-11-19T12:06:23;8.63;;;2.53;;
13415;SDS011;6779;50.150;8.680;2023-11-19T12:08:49;9.83;;;2.40;;
13415;SDS011;6779;50.150;8.680;2023-11-19T12:11:14;10.27;;;2.57;;
13415;SDS011;6779;50.150;8.680;2023-11-19T12:14:14;10.47;;;2.70;;
13415;SDS011;6779;50.150;8.680;2023-11-19T12:16:32;13.30;;;3.37;;
13415;SDS011;6779;50.150;8.680;2023-11-19T12:19:03;13.57;;;2.57;;
13415;SDS011;6779;50.150;8.680;2023-11-19T12:21:30;9.03;;;2.60;;
13415;SDS011;6779;50.150;8.680;2023-11-19T12:23:57;11.80;;;3.37;;
13415;SDS011;6779;50.150;8.680;2023-11-19T12:26:33;10.73;;;2.87;;
13415;SDS011;6779;50.150;8.680;2023-11-19T12:29:00;8.40;;;2.37;;
13415;SDS011;6779;50.150;8.680;2023-11-19T12:31:26;11.40;;;3.00;;
13415;SDS011;6779;50.150;8.680;2023-11-19T12:33:51;10.67;;;2.93;;
13415;SDS011;6779;50.150;8.680;2023-11-19T12:36:17;7.43;;;2.27;;
13415;SDS011;6779;50.150;8.680;2023-11-19T12:38:43;9.30;;;2.10;;
13415;SDS011;6779;50.150;8.680;2023-11-19T12:41:10;9.13;;;2.47;;
13415;SDS011;6779;50.150;8.680;2023-11-19T12:43:36;10.33;;;2.63;;
13415;SDS011;6779;50.150;8.680;2023-11-19T12:46:03;7.37;;;2.13;;
13415;SDS011;6779;50.150;8.680;2023-11-19T12:48:41;6.80;;;2.30;;
13415;SDS011;6779;50.150;8.680;2023-11-19T12:51:07;10.27;;;2.20;;
13415;SDS011;6779;50.150;8.680;2023-11-19T12:53:46;11.73;;;2.70;;
13415;SDS011;6779;50.150;8.680;2023-11-19T12:56:13;7.73;;;2.20;;
13415;SDS011;6779;50.150;8.680;2023-11-19T12:58:39;6.40;;;2.33;;
13415;SDS011;6779;50.150;8.680;2023-11-19T13:01:06;10.57;;;2.60;;
13415;SDS011;6779;50.150;8.680;2023-11-19T13:03:33;5.87;;;2.37;;
13415;SDS011;6779;50.150;8.680;2023-11-19T13:06:03;10.90;;;2.63;;
13415;SDS011;6779;50.150;8.680;2023-11-19T13:08:29;6.67;;;2.00;;
13415;SDS011;6779;50.150;8.680;2023-11-19T13:11:02;8.57;;;2.37;;
13415;SDS011;6779;50.150;8.680;2023-11-19T13:13:28;8.07;;;2.00;;
13415;SDS011;6779;50.150;8.680;2023-11-19T13:15:53;6.70;;;1.90;;
13415;SDS011;6779;50.150;8.680;2023-11-19T13:18:18;9.03;;;2.10;;
13415;SDS011;6779;50.150;8.680;2023-11-19T13:20:44;6.23;;;2.40;;
13415;SDS011;6779;50.150;8.680;2023-11-19T13:23:09;6.60;;;2.13;;
13415;SDS011;6779;50.150;8.680;2023-11-19T13:25:35;6.93;;;2.67;;
13415;SDS011;6779;50.150;8.680;2023-11-19T13:28:01;8.80;;;2.30;;
13415;SDS011;6779;50.150;8.680;2023-11-19T13:30:26;8.90;;;2.37;;
13415;SDS011;6779;50.150;8.680;2023-11-19T13:32:52;9.17;;;2.10;;
13415;SDS011;6779;50.150;8.680;2023-11-19T13:35:20;5.97;;;2.10;;
13415;SDS011;6779;50.150;8.680;2023-11-19T13:37:47;6.47;;;2.13;;
13415;SDS011;6779;50.150;8.680;2023-11-19T13:40:12;5.97;;;2.33;;
13415;SDS011;6779;50.150;8.680;2023-11-19T13:42:42;10.23;;;2.33;;
13415;SDS011;6779;50.150;8.680;2023-11-19T13:45:08;9.17;;;1.90;;
13415;SDS011;6779;50.150;8.680;2023-11-19T13:47:38;6.93;;;2.17;;
13415;SDS011;6779;50.150;8.680;2023-11-19T13:50:06;7.67;;;2.40;;
13415;SDS011;6779;50.150;8.680;2023-11-19T13:52:38;10.23;;;3.13;;
13415;SDS011;6779;50.150;8.680;2023-11-19T13:55:05;9.13;;;3.10;;
13415;SDS011;6779;50.150;8.680;2023-11-19T13:57:32;11.10;;;2.93;;
13415;SDS011;6779;50.150;8.680;2023-11-19T13:59:57;9.40;;;2.57;;
13415;SDS011;6779;50.150;8.680;2023-11-19T14:02:22;8.40;;;2.90;;
13415;SDS011;6779;50.150;8.680;2023-11-19T14:04:48;8.27;;;3.07;;
13415;SDS011;6779;50.150;8.680;2023-11-19T14:07:13;10.30;;;2.73;;
13415;SDS011;6779;50.150;8.680;2023-11-19T14:09:41;7.87;;;2.20;;
13415;SDS011;6779;50.150;8.680;2023-11-19T14:12:07;6.93;;;2.40;;
13415;SDS011;6779;50.150;8.680;2023-11-19T14:14:33;5.77;;;2.13;;
13415;SDS011;6779;50.150;8.680;2023-11-19T14:16:58;9.40;;;2.20;;
13415;SDS011;6779;50.150;8.680;2023-11-19T14:19:24;9.37;;;2.60;;
13415;SDS011;6779;50.150;8.680;2023-11-19T14:21:49;10.03;;;2.60;;
13415;SDS011;6779;50.150;8.680;2023-11-19T14:24:14;9.17;;;2.80;;
13415;SDS011;6779;50.150;8.680;2023-11-19T14:26:40;6.80;;;2.73;;
13415;SDS011;6779;50.150;8.680;2023-11-19T14:29:05;4.33;;;1.90;;
13415;SDS011;6779;50.150;8.680;2023-11-19T14:31:30;9.53;;;2.67;;
13415;SDS011;6779;50.150;8.680;2023-11-19T14:33:57;9.23;;;2.30;;
13415;SDS011;6779;50.150;8.680;2023-11-19T14:36:22;7.53;;;2.47;;
13415;SDS011;6779;50.150;8.680;2023-11-19T14:38:47;7.33;;;2.63;;
13415;SDS011;6779;50.150;8.680;2023-11-19T14:41:13;10.60;;;2.63;;
13415;SDS011;6779;50.150;8.680;2023-11-19T14:43:39;9.20;;;2.67;;
13415;SDS011;6779;50.150;8.680;2023-11-19T14:46:04;11.50;;;2.37;;
13415;SDS011;6779;50.150;8.680;2023-11-19T14:48:31;5.13;;;2.27;;
13415;SDS011;6779;50.150;8.680;2023-11-19T14:50:57;8.67;;;2.20;;
13415;SDS011;6779;50.150;8.680;2023-11-19T14:53:22;7.33;;;2.20;;
13415;SDS011;6779;50.150;8.680;2023-11-19T14:55:48;8.30;;;2.07;;
13415;SDS011;6779;50.150;8.680;2023-11-19T14:58:13;8.07;;;2.43;;
13415;SDS011;6779;50.150;8.680;2023-11-19T15:00:39;8.93;;;2.40;;
13415;SDS011;6779;50.150;8.680;2023-11-19T15:03:04;3.77;;;1.80;;